Time;durP1;ratioP1;P1;durP2;ratioP2;P2;SDS_P1;SDS_P2;PMS_P1;PMS_P2;Temp;Humidity;BMP_temperature;BMP_pressure;BME280_temperature;BME280_humidity;BME280_pressure;Samples;Min_cycle;Max_cycle;Signal;HPM_P1;HPM_P2
2023/06/10 00:01:36;;;;;;;;;;;;;;;20.25;40.96;100780.94;7356345;19;20374;-59
2023/06/10 00:04:01;;;;;;;;;;;;;;;20.22;41.20;100775.81;7352983;19;19929;-59
2023/06/10 00:06:28;;;;;;;;;;;;;;;20.19;40.90;100778.66;7354511;19;19911;-59
2023/06/10 00:08:54;;;;;;;;;;;;;;;20.15;41.16;100785.09;7352889;19;19931;-59
2023/06/10 00:11:21;;;;;;;;;;;;;;;20.11;41.34;100779.13;7356710;19;19926;-59
2023/06/10 00:13:46;;;;;;;;;;;;;;;20.08;41.33;100775.84;7354722;19;20000;-59
2023/06/10 00:16:12;;;;;;;;;;;;;;;20.05;41.32;100773.34;7357536;19;19982;-59
2023/06/10 00:18:38;;;;;;;;;;;;;;;20.02;41.13;100776.19;7356284;19;19914;-59
2023/06/10 00:21:04;;;;;;;;;;;;;;;19.99;41.04;100779.03;7352144;19;19915;-59
2023/06/10 00:23:30;;;;;;;;;;;;;;;19.93;41.48;100770.50;7356022;19;19921;-59
2023/06/10 00:25:57;;;;;;;;;;;;;;;19.89;41.54;100776.94;7355326;19;20893;-59
2023/06/10 00:28:22;;;;;;;;;;;;;;;19.86;41.51;100770.97;7355871;19;19926;-59
2023/06/10 00:30:48;;;;;;;;;;;;;;;19.82;41.69;100769.44;7354057;19;19911;-59
2023/06/10 00:33:13;;;;;;;;;;;;;;;19.78;41.67;100766.13;7355240;19;19915;-58
2023/06/10 00:35:38;;;;;;;;;;;;;;;19.73;41.34;100762.91;7355621;19;20472;-59
2023/06/10 00:38:03;;;;;;;;;;;;;;;19.70;41.72;100763.09;7349304;19;19941;-59
2023/06/10 00:40:29;;;;;;;;;;;;;;;19.66;41.89;100766.84;7354573;19;19923;-59
2023/06/10 00:42:54;;;;;;;;;;;;;;;19.62;41.60;100765.34;7355972;19;19918;-60
2023/06/10 00:45:19;;;;;;;;;;;;;;;19.58;41.63;100754.03;7356664;19;19923;-59
2023/06/10 00:47:45;;;;;;;;;;;;;;;19.55;41.72;100761.31;7352252;19;20490;-59
2023/06/10 00:50:10;;;;;;;;;;;;;;;19.52;42.07;100770.31;7355999;19;20021;-59
2023/06/10 00:52:36;;;;;;;;;;;;;;;19.49;41.96;100766.97;7354565;19;20015;-59
2023/06/10 00:55:01;;;;;;;;;;;;;;;19.45;41.76;100758.34;7354214;19;20749;-59
2023/06/10 00:57:27;;;;;;;;;;;;;;;19.41;42.38;100770.94;7356888;19;19927;-59
2023/06/10 00:59:52;;;;;;;;;;;;;;;19.38;42.05;100763.16;7353307;19;19923;-59
2023/06/10 01:02:17;;;;;;;;;;;;;;;19.36;42.09;100770.34;7352933;19;20730;-59
2023/06/10 01:04:43;;;;;;;;;;;;;;;19.34;42.10;100766.06;7352212;19;19925;-59
2023/06/10 01:07:21;;;;;;;;;;;;;;;19.30;42.23;100765.38;7356321;19;20197;-59
2023/06/10 01:09:55;;;;;;;;;;;;;;;19.26;42.34;100766.53;7357620;19;20391;-59
2023/06/10 01:12:29;;;;;;;;;;;;;;;19.22;42.35;100762.34;7351640;19;20762;-59
2023/06/10 01:14:55;;;;;;;;;;;;;;;19.20;42.29;100764.22;7355808;19;20239;-59
2023/06/10 01:17:20;;;;;;;;;;;;;;;19.16;42.75;100758.25;7356929;19;19925;-59
2023/06/10 01:19:54;;;;;;;;;;;;;;;19.14;42.77;100759.28;7357259;19;19956;-59
2023/06/10 01:22:20;;;;;;;;;;;;;;;19.10;42.49;100763.88;7355211;19;19934;-59
2023/06/10 01:24:45;;;;;;;;;;;;;;;19.07;42.38;100768.53;7349696;19;19926;-59
2023/06/10 01:27:13;;;;;;;;;;;;;;;19.05;42.46;100765.94;7356994;19;19918;-59
2023/06/10 01:29:45;;;;;;;;;;;;;;;19.02;42.91;100757.34;7351292;19;20230;-59
2023/06/10 01:32:29;;;;;;;;;;;;;;;19.00;42.73;100765.34;7354532;19;19956;-59
2023/06/10 01:34:55;;;;;;;;;;;;;;;18.93;42.94;100748.97;7355803;19;19940;-59
2023/06/10 01:37:24;;;;;;;;;;;;;;;18.92;43.18;100749.06;7351339;19;19956;-59
2023/06/10 01:39:50;;;;;;;;;;;;;;;18.88;43.22;100747.53;7355842;19;19934;-59
2023/06/10 01:42:15;;;;;;;;;;;;;;;18.85;43.22;100743.25;7352813;19;19923;-59
2023/06/10 01:44:41;;;;;;;;;;;;;;;18.83;43.38;100749.59;7356045;19;20026;-59
2023/06/10 01:47:07;;;;;;;;;;;;;;;18.80;43.32;100750.59;7355678;19;20014;-59
2023/06/10 01:49:32;;;;;;;;;;;;;;;18.78;43.40;100747.19;7352133;19;20752;-59
2023/06/10 01:51:57;;;;;;;;;;;;;;;18.76;43.16;100754.38;7354339;19;19999;-59
2023/06/10 01:54:23;;;;;;;;;;;;;;;18.73;43.23;100738.66;7353800;19;20241;-59
2023/06/10 01:56:48;;;;;;;;;;;;;;;18.72;43.16;100744.03;7349890;19;19948;-59
2023/06/10 01:59:13;;;;;;;;;;;;;;;18.70;43.35;100744.13;7348731;19;19935;-58
2023/06/10 02:01:38;;;;;;;;;;;;;;;18.67;43.51;100745.13;7355288;19;19923;-59
2023/06/10 02:04:04;;;;;;;;;;;;;;;18.66;43.23;100747.84;7353280;19;19939;-59
2023/06/10 02:06:29;;;;;;;;;;;;;;;18.63;43.24;100734.78;7351692;19;20599;-59
2023/06/10 02:08:55;;;;;;;;;;;;;;;18.61;43.29;100737.53;7355054;19;19923;-59
2023/06/10 02:11:20;;;;;;;;;;;;;;;18.60;43.59;100748.16;7352191;19;19939;-59
2023/06/10 02:13:45;;;;;;;;;;;;;;;18.57;43.31;100743.91;7354359;19;19923;-59
2023/06/10 02:16:12;;;;;;;;;;;;;;;18.55;43.82;100742.28;7353281;19;20545;-59
2023/06/10 02:18:38;;;;;;;;;;;;;;;18.52;43.33;100735.38;7355718;19;19926;-59
2023/06/10 02:21:03;;;;;;;;;;;;;;;18.51;43.77;100732.84;7349277;19;20678;-59
2023/06/10 02:23:28;;;;;;;;;;;;;;;18.48;43.42;100735.63;7353537;19;20262;-58
2023/06/10 02:25:54;;;;;;;;;;;;;;;18.45;43.29;100735.78;7347832;19;19947;-59
2023/06/10 02:28:19;;;;;;;;;;;;;;;18.44;43.73;100736.75;7351436;19;19923;-58
2023/06/10 02:30:45;;;;;;;;;;;;;;;18.40;43.83;100736.94;7351346;19;20635;-59
2023/06/10 02:33:10;;;;;;;;;;;;;;;18.38;43.89;100748.50;7354231;19;19930;-59
2023/06/10 02:35:39;;;;;;;;;;;;;;;18.36;43.79;100739.81;7348648;19;19914;-58
2023/06/10 02:38:04;;;;;;;;;;;;;;;18.32;43.84;100741.75;7352665;19;19963;-59
2023/06/10 02:40:30;;;;;;;;;;;;;;;18.31;44.06;100737.41;7353669;19;19929;-59
2023/06/10 02:42:55;;;;;;;;;;;;;;;17.98;43.92;100681.09;7348827;19;19972;-59
2023/06/10 02:45:20;;;;;;;;;;;;;;;18.27;43.73;100735.88;7351890;19;19915;-59
2023/06/10 02:47:45;;;;;;;;;;;;;;;18.26;43.69;100739.47;7352501;19;20435;-59
2023/06/10 02:50:11;;;;;;;;;;;;;;;18.25;43.79;100734.22;7350531;19;19945;-59
2023/06/10 02:52:36;;;;;;;;;;;;;;;18.24;44.14;100730.75;7350481;19;19925;-59
2023/06/10 02:55:02;;;;;;;;;;;;;;;18.22;44.36;100729.97;7347997;19;20256;-59
2023/06/10 02:57:27;;;;;;;;;;;;;;;18.22;44.19;100732.63;7353948;19;20605;-59
2023/06/10 02:59:53;;;;;;;;;;;;;;;18.22;44.41;100732.63;7354094;19;19961;-59
2023/06/10 03:02:18;;;;;;;;;;;;;;;18.23;44.32;100731.69;7333060;19;20272;-59
2023/06/10 03:04:44;;;;;;;;;;;;;;;18.24;44.48;100735.19;7357832;19;19943;-59
2023/06/10 03:07:11;;;;;;;;;;;;;;;18.23;44.59;100739.63;7353787;19;19922;-59
2023/06/10 03:09:36;;;;;;;;;;;;;;;18.24;44.10;100743.97;7359458;19;19939;-59
2023/06/10 03:12:02;;;;;;;;;;;;;;;18.24;44.28;100738.66;7358074;19;19919;-59
2023/06/10 03:14:27;;;;;;;;;;;;;;;18.25;44.21;100734.22;7359304;19;19926;-59
2023/06/10 03:16:53;;;;;;;;;;;;;;;18.25;44.24;100740.41;7358393;19;19959;-59
2023/06/10 03:19:18;;;;;;;;;;;;;;;17.91;44.54;100685.84;7357969;19;19923;-59
2023/06/10 03:21:44;;;;;;;;;;;;;;;18.26;44.39;100751.81;7353502;19;19989;-59
2023/06/10 03:24:10;;;;;;;;;;;;;;;18.25;44.48;100745.69;7354482;19;19936;-59
2023/06/10 03:26:36;;;;;;;;;;;;;;;18.26;44.16;100750.03;7353805;19;19918;-59
2023/06/10 03:29:01;;;;;;;;;;;;;;;18.26;44.27;100744.75;7355602;19;19919;-59
2023/06/10 03:31:26;;;;;;;;;;;;;;;18.26;44.63;100747.38;7358793;19;19918;-59
2023/06/10 03:33:51;;;;;;;;;;;;;;;18.25;44.39;100745.69;7358410;19;19929;-59
2023/06/10 03:36:17;;;;;;;;;;;;;;;18.25;44.58;100740.41;7354413;19;19915;-59
2023/06/10 03:38:42;;;;;;;;;;;;;;;18.25;44.33;100745.69;7354352;19;21240;-59
2023/06/10 03:41:07;;;;;;;;;;;;;;;18.25;44.31;100739.53;7356147;19;19925;-59
2023/06/10 03:43:33;;;;;;;;;;;;;;;18.24;44.32;100741.31;7359221;19;19987;-59
2023/06/10 03:45:58;;;;;;;;;;;;;;;18.25;44.58;100748.34;7359376;19;20440;-59
2023/06/10 03:48:24;;;;;;;;;;;;;;;18.25;44.33;100737.75;7357389;19;19915;-59
2023/06/10 03:50:50;;;;;;;;;;;;;;;18.23;44.84;100726.41;7351611;19;19934;-59
2023/06/10 03:53:16;;;;;;;;;;;;;;;18.25;44.79;100736.88;7356662;19;19927;-59
2023/06/10 03:55:41;;;;;;;;;;;;;;;18.23;44.58;100731.69;7356943;19;19930;-60
2023/06/10 03:58:06;;;;;;;;;;;;;;;18.23;44.92;100736.97;7357134;19;19947;-59
2023/06/10 04:00:40;;;;;;;;;;;;;;;18.23;44.78;100742.25;7351603;19;19935;-58
2023/06/10 04:03:08;;;;;;;;;;;;;;;18.23;45.01;100744.91;7356683;19;19931;-59
2023/06/10 04:05:34;;;;;;;;;;;;;;;18.24;44.67;100740.47;7357245;19;19921;-59
2023/06/10 04:08:01;;;;;;;;;;;;;;;18.23;44.92;100738.75;7357048;19;19911;-59
2023/06/10 04:10:26;;;;;;;;;;;;;;;18.23;44.85;100738.75;7355426;19;19991;-59
2023/06/10 04:12:52;;;;;;;;;;;;;;;18.22;45.19;100737.91;7353092;19;20706;-59
2023/06/10 04:15:17;;;;;;;;;;;;;;;18.21;44.83;100738.84;7358171;19;19919;-58
2023/06/10 04:17:42;;;;;;;;;;;;;;;18.21;45.26;100741.50;7356537;19;19915;-58
2023/06/10 04:20:08;;;;;;;;;;;;;;;18.20;45.33;100737.16;7355771;19;20365;-59
2023/06/10 04:22:33;;;;;;;;;;;;;;;18.20;45.04;100739.81;7353845;19;19918;-59
2023/06/10 04:24:59;;;;;;;;;;;;;;;18.19;45.10;100732.78;7356467;19;19915;-59
2023/06/10 04:27:24;;;;;;;;;;;;;;;18.19;45.08;100722.22;7354083;19;20544;-59
2023/06/10 04:29:49;;;;;;;;;;;;;;;18.20;45.31;100723.06;7355790;19;20474;-59
2023/06/10 04:32:15;;;;;;;;;;;;;;;18.19;45.20;100716.91;7356652;19;19927;-58
2023/06/10 04:34:40;;;;;;;;;;;;;;;18.19;45.57;100722.22;7355901;19;19930;-59
2023/06/10 04:37:06;;;;;;;;;;;;;;;18.19;45.29;100722.22;7355043;19;19926;-59
2023/06/10 04:39:32;;;;;;;;;;;;;;;18.19;45.22;100730.13;7357892;19;20250;-59
2023/06/10 04:41:57;;;;;;;;;;;;;;;18.18;45.42;100733.72;7351218;19;19956;-59
2023/06/10 04:44:22;;;;;;;;;;;;;;;18.19;45.60;100731.94;7357705;19;19938;-59
2023/06/10 04:46:47;;;;;;;;;;;;;;;18.19;45.62;100726.63;7352063;19;19919;-57
2023/06/10 04:49:14;;;;;;;;;;;;;;;18.19;45.69;100727.50;7358984;19;20697;-58
2023/06/10 04:51:39;;;;;;;;;;;;;;;18.20;45.75;100723.94;7356354;19;19939;-59
2023/06/10 04:54:05;;;;;;;;;;;;;;;18.20;45.80;100718.66;7354980;19;19923;-59
2023/06/10 04:56:30;;;;;;;;;;;;;;;18.19;45.70;100719.56;7354947;19;20731;-59
2023/06/10 04:59:01;;;;;;;;;;;;;;;18.20;45.59;100712.47;7357236;19;19929;-59
2023/06/10 05:01:27;;;;;;;;;;;;;;;18.19;45.75;100716.91;7352546;19;19948;-59
2023/06/10 05:03:53;;;;;;;;;;;;;;;18.20;45.89;100723.94;7356658;19;20209;-59
2023/06/10 05:06:18;;;;;;;;;;;;;;;18.19;45.76;100730.13;7345548;19;19991;-59
2023/06/10 05:08:43;;;;;;;;;;;;;;;18.19;46.06;100727.50;7354898;19;19919;-59
2023/06/10 05:11:09;;;;;;;;;;;;;;;18.20;45.58;100723.94;7353107;19;19940;-59
2023/06/10 05:13:34;;;;;;;;;;;;;;;18.21;45.63;100730.94;7347599;19;19956;-59
2023/06/10 05:16:00;;;;;;;;;;;;;;;18.23;45.54;100728.19;7355838;19;19923;-59
2023/06/10 05:18:25;;;;;;;;;;;;;;;18.23;46.09;100723.75;7345300;19;19922;-59
2023/06/10 05:20:51;;;;;;;;;;;;;;;18.25;45.69;100729.81;7354262;19;19922;-59
2023/06/10 05:23:16;;;;;;;;;;;;;;;18.27;46.11;100730.59;7351396;19;19927;-59
2023/06/10 05:25:42;;;;;;;;;;;;;;;18.28;45.84;100732.28;7352552;19;19927;-60
2023/06/10 05:28:09;;;;;;;;;;;;;;;18.29;45.69;100728.69;7353939;19;20255;-59
2023/06/10 05:30:35;;;;;;;;;;;;;;;18.31;45.98;100732.13;7353740;19;19922;-59
2023/06/10 05:33:00;;;;;;;;;;;;;;;18.34;45.93;100736.38;7347645;19;19933;-59
2023/06/10 05:35:25;;;;;;;;;;;;;;;18.35;46.15;100733.69;7356678;19;19918;-59
2023/06/10 05:37:51;;;;;;;;;;;;;;;18.37;46.18;100737.09;7352918;19;19971;-59
2023/06/10 05:40:16;;;;;;;;;;;;;;;18.39;46.09;100739.63;7350377;19;19922;-59
2023/06/10 05:42:41;;;;;;;;;;;;;;;18.41;46.16;100743.91;7355366;19;19919;-59
2023/06/10 05:45:07;;;;;;;;;;;;;;;18.42;46.20;100745.63;7352004;19;20399;-56
2023/06/10 05:47:32;;;;;;;;;;;;;;;18.46;46.36;100740.19;7356841;19;19922;-58
2023/06/10 05:49:57;;;;;;;;;;;;;;;18.47;46.20;100739.22;7355153;19;19941;-58
2023/06/10 05:52:22;;;;;;;;;;;;;;;18.48;46.04;100739.13;7351883;19;19919;-58
2023/06/10 05:54:48;;;;;;;;;;;;;;;18.50;46.08;100736.41;7352976;19;19911;-59
2023/06/10 05:57:14;;;;;;;;;;;;;;;18.52;46.17;100734.53;7353344;19;20423;-59
2023/06/10 05:59:39;;;;;;;;;;;;;;;18.54;46.13;100738.78;7352543;19;19938;-59
2023/06/10 06:02:05;;;;;;;;;;;;;;;18.55;46.19;100731.72;7354002;19;19943;-58
2023/06/10 06:04:30;;;;;;;;;;;;;;;18.57;46.26;100737.78;7353504;19;19939;-59
2023/06/10 06:06:55;;;;;;;;;;;;;;;18.60;46.32;100734.94;7353848;19;19915;-58
2023/06/10 06:09:21;;;;;;;;;;;;;;;18.61;46.60;100736.69;7353271;19;20842;-59
2023/06/10 06:11:46;;;;;;;;;;;;;;;18.65;46.62;100730.25;7349160;19;19918;-59
2023/06/10 06:14:11;;;;;;;;;;;;;;;18.67;46.95;100729.25;7350599;19;19930;-59
2023/06/10 06:16:38;;;;;;;;;;;;;;;18.70;46.88;100733.53;7354437;19;20574;-59
2023/06/10 06:19:03;;;;;;;;;;;;;;;18.75;46.68;100730.63;7349799;19;20307;-59
2023/06/10 06:21:28;;;;;;;;;;;;;;;18.77;46.38;100726.97;7327384;19;20347;-58
2023/06/10 06:23:54;;;;;;;;;;;;;;;18.81;46.81;100733.81;7353587;19;19925;-58
2023/06/10 06:26:19;;;;;;;;;;;;;;;18.85;46.96;100727.38;7350881;19;19970;-59
2023/06/10 06:28:44;;;;;;;;;;;;;;;18.89;46.05;100728.91;7354213;19;19948;-59
2023/06/10 06:31:11;;;;;;;;;;;;;;;18.97;46.93;100728.50;7352224;19;20230;-59
2023/06/10 06:33:36;;;;;;;;;;;;;;;19.02;46.85;100729.09;7351979;19;20303;-59
2023/06/10 06:36:01;;;;;;;;;;;;;;;19.09;46.78;100729.56;7352092;19;19915;-59
2023/06/10 06:38:26;;;;;;;;;;;;;;;19.14;47.24;100724.88;7350259;19;19923;-59
2023/06/10 06:40:52;;;;;;;;;;;;;;;19.22;47.03;100725.28;7355081;19;19915;-59
2023/06/10 06:43:18;;;;;;;;;;;;;;;19.29;47.14;100731.06;7345693;19;20817;-59
2023/06/10 06:45:43;;;;;;;;;;;;;;;19.35;47.22;100726.25;7353927;19;19927;-59
2023/06/10 06:48:09;;;;;;;;;;;;;;;19.40;46.83;100723.34;7351268;19;19918;-59
2023/06/10 06:50:34;;;;;;;;;;;;;;;19.45;46.81;100726.56;7349996;19;19922;-59
2023/06/10 06:52:59;;;;;;;;;;;;;;;19.50;46.85;100734.25;7354496;19;19943;-59
2023/06/10 06:55:25;;;;;;;;;;;;;;;19.54;47.10;100731.31;7351192;19;19919;-59
2023/06/10 06:57:50;;;;;;;;;;;;;;;19.58;46.97;100737.31;7351790;19;19950;-59
2023/06/10 07:00:15;;;;;;;;;;;;;;;19.61;47.12;100737.13;7349690;19;19974;-59
2023/06/10 07:02:41;;;;;;;;;;;;;;;19.65;46.73;100733.34;7353536;19;20345;-59
2023/06/10 07:05:07;;;;;;;;;;;;;;;19.69;47.21;100735.72;7348402;19;19943;-59
2023/06/10 07:07:32;;;;;;;;;;;;;;;19.72;46.98;100728.53;7346666;19;20324;-60
2023/06/10 07:09:57;;;;;;;;;;;;;;;19.73;46.77;100741.72;7353114;19;19923;-59
2023/06/10 07:12:23;;;;;;;;;;;;;;;19.77;46.89;100740.59;7338877;19;19919;-59
2023/06/10 07:14:49;;;;;;;;;;;;;;;19.81;46.42;100733.28;7351280;19;19915;-59
2023/06/10 07:17:15;;;;;;;;;;;;;;;19.85;46.59;100734.81;7349092;19;20335;-59
2023/06/10 07:19:40;;;;;;;;;;;;;;;19.87;46.95;100736.44;7349293;19;19922;-60
2023/06/10 07:22:05;;;;;;;;;;;;;;;19.92;46.70;100747.63;7352189;19;19915;-59
2023/06/10 07:24:30;;;;;;;;;;;;;;;19.98;46.95;100750.84;7347886;19;19939;-59
2023/06/10 07:26:56;;;;;;;;;;;;;;;20.04;47.33;100755.75;7352459;19;19922;-60
2023/06/10 07:29:21;;;;;;;;;;;;;;;20.12;47.16;100758.78;7347204;19;19922;-59
2023/06/10 07:31:46;;;;;;;;;;;;;;;20.18;47.22;100758.41;7348791;19;19947;-60
2023/06/10 07:34:11;;;;;;;;;;;;;;;20.28;47.11;100759.56;7347712;19;19994;-59
2023/06/10 07:36:37;;;;;;;;;;;;;;;20.36;46.80;100765.22;7348958;19;19955;-57
2023/06/10 07:39:02;;;;;;;;;;;;;;;20.44;46.97;100765.59;7339055;19;19928;-59
2023/06/10 07:41:27;;;;;;;;;;;;;;;20.23;47.29;100716.56;7351037;19;19938;-60
2023/06/10 07:43:54;;;;;;;;;;;;;;;20.64;47.27;100767.03;7349669;19;20002;-59
2023/06/10 07:46:21;;;;;;;;;;;;;;;20.72;47.08;100772.66;7351139;19;20084;-59
2023/06/10 07:48:46;;;;;;;;;;;;;;;20.80;47.06;100771.34;7356809;19;20002;-60
2023/06/10 07:51:12;;;;;;;;;;;;;;;20.87;46.55;100772.66;7358436;19;19970;-59
2023/06/10 07:53:37;;;;;;;;;;;;;;;20.93;46.60;100766.94;7355211;19;19919;-59
2023/06/10 07:56:02;;;;;;;;;;;;;;;20.99;46.84;100759.44;7357462;19;19915;-59
2023/06/10 07:58:27;;;;;;;;;;;;;;;21.07;46.56;100764.22;7351851;19;19968;-60
2023/06/10 08:00:53;;;;;;;;;;;;;;;21.16;46.93;100752.16;7357780;19;20391;-60
2023/06/10 08:03:19;;;;;;;;;;;;;;;21.26;46.82;100763.88;7352229;19;19930;-59
2023/06/10 08:05:44;;;;;;;;;;;;;;;21.36;46.65;100759.69;7355485;19;20220;-59
2023/06/10 08:08:09;;;;;;;;;;;;;;;21.46;46.87;100759.94;7355119;19;20432;-59
2023/06/10 08:10:35;;;;;;;;;;;;;;;21.56;46.41;100760.16;7354767;19;19923;-60
2023/06/10 08:13:00;;;;;;;;;;;;;;;21.67;46.48;100762.94;7356968;19;20022;-59
2023/06/10 08:15:25;;;;;;;;;;;;;;;21.76;46.35;100762.31;7354187;19;20589;-59
2023/06/10 08:17:51;;;;;;;;;;;;;;;21.85;46.18;100751.06;7351831;19;19919;-59
2023/06/10 08:20:17;;;;;;;;;;;;;;;21.94;46.21;100755.72;7352779;19;19922;-59
2023/06/10 08:22:42;;;;;;;;;;;;;;;22.02;46.22;100755.19;7354713;19;19926;-59
2023/06/10 08:25:08;;;;;;;;;;;;;;;22.10;46.18;100762.63;7355177;19;19922;-59
2023/06/10 08:27:33;;;;;;;;;;;;;;;22.17;45.65;100762.13;7352483;19;19919;-59
2023/06/10 08:30:00;;;;;;;;;;;;;;;22.22;45.23;100775.13;7349247;19;19933;-59
2023/06/10 08:32:25;;;;;;;;;;;;;;;22.27;45.94;100770.31;7355962;19;19926;-60
2023/06/10 08:34:51;;;;;;;;;;;;;;;22.31;45.74;100771.81;7354189;19;19919;-60
2023/06/10 08:37:16;;;;;;;;;;;;;;;22.35;45.82;100765.28;7355666;19;19931;-59
2023/06/10 08:39:41;;;;;;;;;;;;;;;22.40;45.57;100768.47;7353616;19;19923;-60
2023/06/10 08:42:12;;;;;;;;;;;;;;;22.46;45.60;100765.41;7352943;19;19949;-59
2023/06/10 08:44:39;;;;;;;;;;;;;;;22.51;45.47;100765.94;7356935;19;19990;-60
2023/06/10 08:47:15;;;;;;;;;;;;;;;22.57;45.84;100769.97;7339135;19;19938;-60
2023/06/10 08:49:45;;;;;;;;;;;;;;;22.63;45.48;100768.66;7339888;19;19915;-59
2023/06/10 08:52:13;;;;;;;;;;;;;;;22.67;45.65;100759.50;7343928;19;19998;-59
2023/06/10 08:54:42;;;;;;;;;;;;;;;22.74;45.52;100766.06;7344125;19;19919;-60
2023/06/10 08:57:07;;;;;;;;;;;;;;;22.79;45.21;100769.25;7347331;19;20607;-60
2023/06/10 08:59:32;;;;;;;;;;;;;;;22.85;45.24;100768.78;7353929;19;19929;-59
2023/06/10 09:01:58;;;;;;;;;;;;;;;22.93;44.95;100774.44;7350509;19;19922;-60
2023/06/10 09:04:26;;;;;;;;;;;;;;;23.00;45.12;100773.03;7348421;19;19919;-59
2023/06/10 09:06:52;;;;;;;;;;;;;;;23.09;45.10;100776.84;7334998;19;19962;-59
2023/06/10 09:09:17;;;;;;;;;;;;;;;23.17;45.43;100766.47;7337900;19;19915;-60
2023/06/10 09:11:43;;;;;;;;;;;;;;;23.27;45.44;100769.31;7347119;19;20253;-60
2023/06/10 09:14:08;;;;;;;;;;;;;;;23.36;45.37;100763.25;7344834;19;20679;-59
2023/06/10 09:16:34;;;;;;;;;;;;;;;23.44;45.51;100766.22;7348871;19;19919;-59
2023/06/10 09:18:59;;;;;;;;;;;;;;;23.52;45.34;100758.50;7343904;19;19927;-59
2023/06/10 09:21:25;;;;;;;;;;;;;;;23.64;45.26;100771.88;7346752;19;20691;-59
2023/06/10 09:23:51;;;;;;;;;;;;;;;23.71;45.16;100768.63;7351683;19;19919;-59
2023/06/10 09:26:16;;;;;;;;;;;;;;;23.81;44.71;100768.75;7353664;19;19919;-60
2023/06/10 09:28:43;;;;;;;;;;;;;;;23.89;45.08;100774.38;7352119;19;19922;-59
2023/06/10 09:31:09;;;;;;;;;;;;;;;23.95;44.60;100771.22;7353844;19;20310;-60
2023/06/10 09:33:39;;;;;;;;;;;;;;;24.01;44.81;100770.72;7351076;19;19957;-59
2023/06/10 09:36:04;;;;;;;;;;;;;;;24.07;44.19;100775.56;7351260;19;19932;-59
2023/06/10 09:38:34;;;;;;;;;;;;;;;24.13;44.29;100773.41;7347380;19;20531;-59
2023/06/10 09:41:01;;;;;;;;;;;;;;;24.18;44.32;100777.44;7353524;19;19919;-59
2023/06/10 09:43:48;;;;;;;;;;;;;;;24.26;44.42;100776.81;7347190;19;19939;-57
2023/06/10 09:46:15;;;;;;;;;;;;;;;24.34;44.04;100771.72;7353403;19;19926;-60
2023/06/10 09:48:42;;;;;;;;;;;;;;;24.43;43.86;100775.50;7351168;19;19943;-60
2023/06/10 09:51:10;;;;;;;;;;;;;;;24.50;43.96;100774.91;7353747;19;19930;-60
2023/06/10 09:53:36;;;;;;;;;;;;;;;24.65;43.93;100774.66;7352946;19;19975;-59
2023/06/10 09:56:01;;;;;;;;;;;;;;;24.79;44.19;100782.41;7342375;19;20691;-60
2023/06/10 09:58:39;;;;;;;;;;;;;;;24.96;44.22;100776.53;7345071;19;20341;-60
2023/06/10 10:01:05;;;;;;;;;;;;;;;25.14;44.22;100770.66;7345654;19;19922;-59
2023/06/10 10:03:30;;;;;;;;;;;;;;;25.31;43.80;100768.28;7342137;19;19914;-60
2023/06/10 10:06:00;;;;;;;;;;;;;;;25.51;43.52;100769.28;7332986;19;20431;-60
2023/06/10 10:08:25;;;;;;;;;;;;;;;25.68;43.37;100764.34;7345824;19;20422;-60
2023/06/10 10:10:50;;;;;;;;;;;;;;;25.81;43.64;100770.38;7347691;19;19986;-60
2023/06/10 10:13:16;;;;;;;;;;;;;;;25.93;43.38;100772.00;7350788;19;20415;-60
2023/06/10 10:15:41;;;;;;;;;;;;;;;26.05;43.41;100776.28;7352080;19;19926;-59
2023/06/10 10:18:08;;;;;;;;;;;;;;;26.11;43.15;100773.09;7351408;19;19931;-60
2023/06/10 10:20:37;;;;;;;;;;;;;;;26.18;43.05;100762.69;7344913;19;19951;-59
2023/06/10 10:23:03;;;;;;;;;;;;;;;26.23;42.54;100767.63;7347916;19;19943;-59
2023/06/10 10:25:31;;;;;;;;;;;;;;;26.28;42.98;100762.72;7348711;19;20496;-58
2023/06/10 10:28:08;;;;;;;;;;;;;;;26.34;42.69;100763.03;7352063;19;19939;-60
2023/06/10 10:30:37;;;;;;;;;;;;;;;26.40;42.81;100751.78;7351974;19;19915;-60
2023/06/10 10:33:22;;;;;;;;;;;;;;;26.45;42.32;100750.56;7351320;19;19923;-59
2023/06/10 10:35:48;;;;;;;;;;;;;;;26.50;42.29;100743.81;7353768;19;19923;-60
2023/06/10 10:38:13;;;;;;;;;;;;;;;26.52;42.63;100749.03;7345668;19;19926;-60
2023/06/10 10:40:39;;;;;;;;;;;;;;;26.50;42.20;100735.78;7351638;19;20518;-60
2023/06/10 10:43:05;;;;;;;;;;;;;;;26.49;42.34;100746.63;7353898;19;20399;-60
2023/06/10 10:45:32;;;;;;;;;;;;;;;26.44;42.13;100747.03;7346334;19;20156;-57
2023/06/10 10:48:01;;;;;;;;;;;;;;;26.40;41.71;100750.94;7354095;19;20659;-58
2023/06/10 10:50:30;;;;;;;;;;;;;;;26.33;41.83;100734.56;7347594;19;19911;-57
2023/06/10 10:52:58;;;;;;;;;;;;;;;26.27;41.96;100740.47;7354250;19;20002;-58
2023/06/10 10:55:24;;;;;;;;;;;;;;;26.20;41.50;100736.63;7347617;19;19929;-58
2023/06/10 10:57:59;;;;;;;;;;;;;;;26.12;41.94;100723.91;7354069;19;20531;-57
2023/06/10 11:00:51;;;;;;;;;;;;;;;26.06;41.54;100727.16;7351215;19;19931;-57
2023/06/10 11:03:16;;;;;;;;;;;;;;;26.00;42.06;100722.31;7251911;19;2004333;-58
2023/06/10 11:05:49;;;;;;;;;;;;;;;26.00;42.16;100716.09;7346738;19;20085;-57
2023/06/10 11:08:15;;;;;;;;;;;;;;;26.01;41.83;100707.97;7353222;19;19933;-57
2023/06/10 11:10:41;;;;;;;;;;;;;;;26.06;41.93;100708.41;7350141;19;20395;-57
2023/06/10 11:13:07;;;;;;;;;;;;;;;26.13;42.04;100706.03;7354575;19;19934;-58
2023/06/10 11:15:32;;;;;;;;;;;;;;;26.26;42.34;100705.81;7349187;19;19918;-57
2023/06/10 11:18:14;;;;;;;;;;;;;;;26.41;42.68;100707.13;7353683;19;19954;-58
2023/06/10 11:20:42;;;;;;;;;;;;;;;26.62;42.15;100707.06;7354593;19;19942;-57
2023/06/10 11:23:08;;;;;;;;;;;;;;;26.83;42.41;100709.63;7354354;19;20035;-58
2023/06/10 11:25:39;;;;;;;;;;;;;;;27.03;42.13;100710.47;7357011;19;19994;-58
2023/06/10 11:28:17;;;;;;;;;;;;;;;27.28;42.38;100726.03;7352763;19;20714;-58
2023/06/10 11:30:42;;;;;;;;;;;;;;;27.61;42.44;100721.16;7356818;19;19998;-58
2023/06/10 11:33:08;;;;;;;;;;;;;;;27.97;42.22;100732.97;7358248;19;19974;-58
2023/06/10 11:35:33;;;;;;;;;;;;;;;28.35;42.11;100731.16;7355601;19;19918;-58
2023/06/10 11:37:58;;;;;;;;;;;;;;;28.72;41.84;100733.75;7354208;19;20351;-58
2023/06/10 11:40:24;;;;;;;;;;;;;;;29.07;41.64;100722.22;7346230;19;20321;-58
2023/06/10 11:42:49;;;;;;;;;;;;;;;29.38;41.00;100719.13;7354844;19;19930;-58
2023/06/10 11:45:16;;;;;;;;;;;;;;;29.67;41.02;100714.31;7350766;19;19914;-57
2023/06/10 11:47:55;;;;;;;;;;;;;;;29.95;40.80;100722.22;7353820;19;19915;-58
2023/06/10 11:50:27;;;;;;;;;;;;;;;30.24;40.27;100721.88;7350301;19;19919;-58
2023/06/10 11:52:55;;;;;;;;;;;;;;;30.53;40.03;100716.09;7355308;19;19933;-58
2023/06/10 11:55:21;;;;;;;;;;;;;;;30.84;40.51;100715.53;7348477;19;20635;-58
2023/06/10 11:57:46;;;;;;;;;;;;;;;31.15;39.74;100704.94;7353841;19;19919;-58
2023/06/10 12:00:11;;;;;;;;;;;;;;;31.46;39.75;100707.81;7353411;19;20021;-58
2023/06/10 12:02:37;;;;;;;;;;;;;;;31.74;39.24;100703.72;7353615;19;19915;-58
2023/06/10 12:05:14;;;;;;;;;;;;;;;32.05;38.93;100702.97;7352233;19;20250;-58
2023/06/10 12:07:40;;;;;;;;;;;;;;;32.35;38.52;100709.44;7351686;19;19919;-58
2023/06/10 12:10:05;;;;;;;;;;;;;;;32.62;38.70;100710.00;7353042;19;20288;-58
2023/06/10 12:12:30;;;;;;;;;;;;;;;32.90;38.77;100696.81;7351499;19;19919;-58
2023/06/10 12:15:02;;;;;;;;;;;;;;;33.14;38.08;100698.50;7350704;19;19915;-58
2023/06/10 12:17:30;;;;;;;;;;;;;;;33.36;36.96;100710.34;7349866;19;19915;-58
2023/06/10 12:19:55;;;;;;;;;;;;;;;33.53;37.07;100703.75;7351810;19;20380;-58
2023/06/10 12:22:21;;;;;;;;;;;;;;;33.67;36.28;100693.97;7353311;19;20003;-58
2023/06/10 12:24:59;;;;;;;;;;;;;;;33.77;35.98;100706.22;7350561;19;19926;-57
2023/06/10 12:27:24;;;;;;;;;;;;;;;33.88;35.66;100706.78;7349912;19;19926;-58
2023/06/10 12:29:55;;;;;;;;;;;;;;;33.95;35.70;100707.72;7349428;19;20631;-58
2023/06/10 12:32:34;;;;;;;;;;;;;;;34.02;35.45;100714.09;7347789;19;24510;-58